createdAt,value
2023-10-26T00:02:19.733Z,11.41
2023-10-26T00:04:46.863Z,11.41
2023-10-26T00:07:14.961Z,11.40
2023-10-26T00:09:41.718Z,11.39
2023-10-26T00:12:09.103Z,11.39
2023-10-26T00:14:35.789Z,11.38
2023-10-26T00:17:02.676Z,11.38
2023-10-26T00:19:29.478Z,11.37
2023-10-26T00:21:56.962Z,11.36
2023-10-26T00:24:23.905Z,11.36
2023-10-26T00:26:50.730Z,11.36
2023-10-26T00:29:18.480Z,11.36
2023-10-26T00:31:45.214Z,11.36
2023-10-26T00:34:11.984Z,11.36
2023-10-26T00:36:38.798Z,11.36
2023-10-26T00:39:05.684Z,11.35
2023-10-26T00:41:32.984Z,11.35
2023-10-26T00:44:00.576Z,11.35
2023-10-26T00:46:27.281Z,11.35
2023-10-26T00:48:54.154Z,11.36
2023-10-26T00:51:21.935Z,11.37
2023-10-26T00:53:48.680Z,11.36
2023-10-26T00:56:15.362Z,11.36
2023-10-26T00:58:42.513Z,11.36
2023-10-26T01:01:10.292Z,11.36
2023-10-26T01:03:37.263Z,11.35
2023-10-26T01:06:04.611Z,11.36
2023-10-26T01:08:31.831Z,11.35
2023-10-26T01:10:58.698Z,11.34
2023-10-26T01:13:25.722Z,11.33
2023-10-26T01:15:52.390Z,11.31
2023-10-26T01:18:19.353Z,11.29
2023-10-26T01:20:46.352Z,11.27
2023-10-26T01:23:13.193Z,11.25
2023-10-26T01:25:40.347Z,11.24
2023-10-26T01:28:07.907Z,11.22
2023-10-26T01:30:35.471Z,11.20
2023-10-26T01:33:02.334Z,11.17
2023-10-26T01:35:36.454Z,11.15
2023-10-26T01:38:03.258Z,11.14
2023-10-26T01:40:30.303Z,11.13
2023-10-26T01:42:57.567Z,11.14
2023-10-26T01:45:24.970Z,11.13
2023-10-26T01:47:54.998Z,11.12
2023-10-26T01:50:21.789Z,11.12
2023-10-26T01:52:48.509Z,11.10
2023-10-26T01:55:16.409Z,11.09
2023-10-26T01:57:44.651Z,11.08
2023-10-26T02:00:12.226Z,11.07
2023-10-26T02:02:39.314Z,11.06
2023-10-26T02:05:06.900Z,11.05
2023-10-26T02:07:34.385Z,11.04
2023-10-26T02:10:01.012Z,11.03
2023-10-26T02:12:27.995Z,11.02
2023-10-26T02:14:54.812Z,11.02
2023-10-26T02:17:21.668Z,11.01
2023-10-26T02:19:48.585Z,11.01
2023-10-26T02:22:16.087Z,11.01
2023-10-26T02:24:43.804Z,11.01
2023-10-26T02:27:11.908Z,10.99
2023-10-26T02:29:38.925Z,10.99
2023-10-26T02:32:06.789Z,10.98
2023-10-26T02:34:33.582Z,10.97
2023-10-26T02:37:01.704Z,10.97
2023-10-26T02:39:28.740Z,10.96
2023-10-26T02:41:55.723Z,10.95
2023-10-26T02:44:22.569Z,10.95
2023-10-26T02:46:49.377Z,10.94
2023-10-26T02:49:16.220Z,10.94
2023-10-26T02:51:43.263Z,10.94
2023-10-26T02:54:10.244Z,10.93
2023-10-26T02:56:36.953Z,10.94
2023-10-26T02:59:04.816Z,10.93
2023-10-26T03:01:35.177Z,10.93
2023-10-26T03:04:05.725Z,10.93
2023-10-26T03:06:39.220Z,10.92
2023-10-26T03:09:06.502Z,10.93
2023-10-26T03:11:33.573Z,10.93
2023-10-26T03:14:00.437Z,10.93
2023-10-26T03:16:27.398Z,10.92
2023-10-26T03:18:54.096Z,10.91
2023-10-26T03:21:21.534Z,10.91
2023-10-26T03:23:56.322Z,10.90
2023-10-26T03:26:23.971Z,10.90
2023-10-26T03:28:51.304Z,10.89
2023-10-26T03:31:18.086Z,10.88
2023-10-26T03:33:44.813Z,10.88
2023-10-26T03:36:15.884Z,10.88
2023-10-26T03:38:43.400Z,10.89
2023-10-26T03:41:11.358Z,10.89
2023-10-26T03:43:38.230Z,10.88
2023-10-26T03:46:08.729Z,10.87
2023-10-26T03:48:36.173Z,10.88
2023-10-26T03:51:03.380Z,10.88
2023-10-26T03:53:30.926Z,10.87
2023-10-26T03:55:58.250Z,10.87
2023-10-26T03:58:24.983Z,10.85
2023-10-26T04:00:52.158Z,10.85
2023-10-26T04:03:19.133Z,10.85
2023-10-26T04:05:46.040Z,10.84
2023-10-26T04:08:13.158Z,10.84
2023-10-26T04:10:42.354Z,10.84
2023-10-26T04:13:09.220Z,10.83
2023-10-26T04:15:36.076Z,10.83
2023-10-26T04:18:09.358Z,10.83
2023-10-26T04:20:36.580Z,10.82
2023-10-26T04:23:04.683Z,10.81
2023-10-26T04:25:46.537Z,10.81
2023-10-26T04:28:19.023Z,10.79
2023-10-26T04:30:48.038Z,10.79
2023-10-26T04:33:15.869Z,10.79
2023-10-26T04:35:47.127Z,10.78
2023-10-26T04:38:14.027Z,10.78
2023-10-26T04:40:42.065Z,10.79
2023-10-26T04:43:09.713Z,10.79
2023-10-26T04:45:36.563Z,10.80
2023-10-26T04:48:04.154Z,10.81
2023-10-26T04:50:31.695Z,10.82
2023-10-26T04:52:59.655Z,10.82
2023-10-26T04:55:31.096Z,10.82
2023-10-26T04:57:58.759Z,10.83
2023-10-26T05:00:26.750Z,10.83
2023-10-26T05:02:53.986Z,10.83
2023-10-26T05:05:20.923Z,10.83
2023-10-26T05:07:47.682Z,10.83
2023-10-26T05:10:14.899Z,10.82
2023-10-26T05:12:41.805Z,10.82
2023-10-26T05:15:09.415Z,10.82
2023-10-26T05:17:38.173Z,10.82
2023-10-26T05:20:06.155Z,10.82
2023-10-26T05:22:33.870Z,10.83
2023-10-26T05:25:05.097Z,10.85
2023-10-26T05:27:33.573Z,10.86
2023-10-26T05:30:01.028Z,10.87
2023-10-26T05:32:27.960Z,10.88
2023-10-26T05:34:55.344Z,10.90
2023-10-26T05:37:22.238Z,10.92
2023-10-26T05:39:49.103Z,10.94
2023-10-26T05:42:15.941Z,10.95
2023-10-26T05:44:43.084Z,10.97
2023-10-26T05:47:10.236Z,10.98
2023-10-26T05:49:37.054Z,10.99
2023-10-26T05:52:04.655Z,11.00
2023-10-26T05:54:32.918Z,11.00
2023-10-26T05:57:01.001Z,11.01
2023-10-26T05:59:27.916Z,11.03
2023-10-26T06:01:54.801Z,11.08
2023-10-26T06:04:21.999Z,11.14
2023-10-26T06:06:48.974Z,11.18
2023-10-26T06:09:16.754Z,11.23
2023-10-26T06:11:43.836Z,11.25
2023-10-26T06:14:10.751Z,11.29
2023-10-26T06:16:38.073Z,11.32
2023-10-26T06:19:09.038Z,11.34
2023-10-26T06:21:36.278Z,11.34
2023-10-26T06:24:03.968Z,11.31
2023-10-26T06:26:33.593Z,11.31
2023-10-26T06:29:00.755Z,11.32
2023-10-26T06:31:29.088Z,11.32
2023-10-26T06:33:55.919Z,11.32
2023-10-26T06:36:22.561Z,11.30
2023-10-26T06:38:49.878Z,11.28
2023-10-26T06:41:17.186Z,11.28
2023-10-26T06:43:45.302Z,11.28
2023-10-26T06:46:12.218Z,11.28
2023-10-26T06:48:39.148Z,11.31
2023-10-26T06:51:07.232Z,11.34
2023-10-26T06:53:34.813Z,11.36
2023-10-26T06:56:01.975Z,11.37
2023-10-26T06:58:28.910Z,11.37
2023-10-26T07:00:55.942Z,11.42
2023-10-26T07:03:23.286Z,11.46
2023-10-26T07:05:50.667Z,11.54
2023-10-26T07:08:17.854Z,11.60
2023-10-26T07:10:44.857Z,11.66
2023-10-26T07:13:12.598Z,11.70
2023-10-26T07:15:39.916Z,11.73
2023-10-26T07:18:07.037Z,11.77
2023-10-26T07:20:34.033Z,11.79
2023-10-26T07:23:01.154Z,11.81
2023-10-26T07:25:28.061Z,11.83
2023-10-26T07:27:55.051Z,11.88
2023-10-26T07:30:22.184Z,11.90
2023-10-26T07:32:49.245Z,11.91
2023-10-26T07:35:16.532Z,11.93
2023-10-26T07:37:47.930Z,11.95
2023-10-26T07:40:29.250Z,11.98
2023-10-26T07:42:57.613Z,12.05
2023-10-26T07:45:26.594Z,12.16
2023-10-26T07:47:55.163Z,12.27
2023-10-26T07:50:29.629Z,12.30
2023-10-26T07:52:56.471Z,12.29
2023-10-26T07:55:23.361Z,12.28
2023-10-26T07:57:50.395Z,12.33
2023-10-26T08:00:18.390Z,12.45
2023-10-26T08:02:45.771Z,12.72
2023-10-26T08:05:13.490Z,13.21
2023-10-26T08:07:40.495Z,13.74
2023-10-26T08:10:08.863Z,14.19
2023-10-26T08:12:36.161Z,14.56
2023-10-26T08:16:29.892Z,15.07
2023-10-26T08:17:51.391Z,16.00
2023-10-26T08:20:20.039Z,17.10
2023-10-26T08:22:46.876Z,18.42
2023-10-26T08:25:16.238Z,19.87
2023-10-26T08:27:46.094Z,21.10
2023-10-26T08:30:13.653Z,21.87
2023-10-26T08:32:40.528Z,22.53
2023-10-26T08:35:08.291Z,22.76
2023-10-26T08:37:35.544Z,22.74
2023-10-26T08:40:21.927Z,22.57
2023-10-26T08:42:49.328Z,22.50
2023-10-26T08:45:24.654Z,22.81
2023-10-26T08:47:52.013Z,23.27
2023-10-26T08:50:23.253Z,23.25
2023-10-26T08:52:52.051Z,22.75
2023-10-26T08:55:20.466Z,22.02
2023-10-26T08:57:52.652Z,21.30
2023-10-26T09:00:20.929Z,20.70
2023-10-26T09:02:49.281Z,20.22
2023-10-26T09:05:16.794Z,19.83
2023-10-26T09:07:44.024Z,19.40
2023-10-26T09:10:11.677Z,19.08
2023-10-26T09:12:38.844Z,18.87
2023-10-26T09:15:07.141Z,18.67
2023-10-26T09:17:34.533Z,18.41
2023-10-26T09:20:18.353Z,18.21
2023-10-26T09:22:45.422Z,18.14
2023-10-26T09:25:13.408Z,18.03
2023-10-26T09:27:41.479Z,17.94
2023-10-26T09:30:29.440Z,18.16
2023-10-26T09:32:57.447Z,19.05
2023-10-26T09:35:31.702Z,19.72
2023-10-26T09:37:59.299Z,19.86
2023-10-26T09:40:27.163Z,19.67
2023-10-26T09:42:57.202Z,19.75
2023-10-26T09:45:24.607Z,20.08
2023-10-26T09:47:51.820Z,20.06
2023-10-26T09:50:19.229Z,19.77
2023-10-26T09:52:49.857Z,19.40
2023-10-26T09:55:18.685Z,19.07
2023-10-26T09:57:57.308Z,18.72
2023-10-26T10:00:32.485Z,18.41
2023-10-26T10:03:17.979Z,18.51
2023-10-26T10:05:47.128Z,19.47
2023-10-26T10:08:14.615Z,20.25
2023-10-26T10:11:18.166Z,20.59
2023-10-26T10:13:45.910Z,20.82
2023-10-26T10:16:37.879Z,20.84
2023-10-26T10:19:21.388Z,20.76
2023-10-26T10:21:49.714Z,20.61
2023-10-26T10:24:40.420Z,20.46
2023-10-26T10:27:12.509Z,20.22
2023-10-26T10:29:40.872Z,20.11
2023-10-26T10:32:11.252Z,20.16
2023-10-26T10:34:46.367Z,20.34
2023-10-26T10:37:22.580Z,20.73
2023-10-26T10:40:09.914Z,21.08
2023-10-26T10:42:50.514Z,21.31
2023-10-26T10:45:19.327Z,21.28
2023-10-26T10:47:49.979Z,21.13
2023-10-26T10:50:22.178Z,20.90
2023-10-26T10:52:54.810Z,20.55
2023-10-26T10:55:27.236Z,20.16
2023-10-26T10:57:56.457Z,19.80
2023-10-26T11:00:25.459Z,19.62
2023-10-26T11:02:57.633Z,19.54
2023-10-26T11:05:38.514Z,19.55
2023-10-26T11:08:07.939Z,19.57
2023-10-26T11:10:50.082Z,19.57
2023-10-26T11:13:21.005Z,19.57
2023-10-26T11:15:50.343Z,19.70
2023-10-26T11:18:18.046Z,19.82
2023-10-26T11:20:48.368Z,19.81
2023-10-26T11:23:22.591Z,19.65
2023-10-26T11:25:50.239Z,19.46
2023-10-26T11:28:33.287Z,19.32
2023-10-26T11:31:01.004Z,19.12
2023-10-26T11:33:32.662Z,18.79
2023-10-26T11:35:59.912Z,18.41
2023-10-26T11:46:11.139Z,17.65
2023-10-26T11:48:38.517Z,17.54
2023-10-26T11:51:07.456Z,17.49
2023-10-26T11:53:39.800Z,17.46
2023-10-26T11:56:09.401Z,17.40
2023-10-26T11:58:37.366Z,17.35
2023-10-26T12:01:05.737Z,17.24
2023-10-26T12:03:33.023Z,17.12
2023-10-26T12:06:02.606Z,16.99
2023-10-26T12:08:31.489Z,16.86
2023-10-26T12:11:01.196Z,16.76
2023-10-26T12:13:34.101Z,16.67
2023-10-26T12:16:01.439Z,16.54
2023-10-26T12:18:28.946Z,16.42
2023-10-26T12:21:13.801Z,16.28
2023-10-26T12:23:40.726Z,16.20
2023-10-26T12:26:08.056Z,16.09
2023-10-26T12:28:35.445Z,16.00
2023-10-26T12:31:03.301Z,15.91
2023-10-26T12:33:30.275Z,15.89
2023-10-26T12:35:57.469Z,15.89
2023-10-26T12:38:24.514Z,15.86
2023-10-26T12:40:51.476Z,15.82
2023-10-26T12:43:18.404Z,15.76
2023-10-26T12:45:45.457Z,15.72
2023-10-26T12:48:12.437Z,15.71
2023-10-26T12:50:39.763Z,15.73
2023-10-26T12:53:06.797Z,15.75
2023-10-26T12:55:35.773Z,15.74
2023-10-26T12:58:03.013Z,15.74
2023-10-26T13:00:31.260Z,15.74
2023-10-26T13:02:58.379Z,15.69
2023-10-26T13:05:25.443Z,15.60
2023-10-26T13:07:52.352Z,15.51
2023-10-26T13:10:19.297Z,15.45
2023-10-26T13:12:49.045Z,15.41
2023-10-26T13:15:21.043Z,15.34
2023-10-26T13:17:49.843Z,15.28
2023-10-26T13:20:16.808Z,15.24
2023-10-26T13:22:43.792Z,15.22
2023-10-26T13:25:10.972Z,15.17
2023-10-26T13:27:38.192Z,15.12
2023-10-26T13:30:06.744Z,15.08
2023-10-26T13:32:37.167Z,15.04
2023-10-26T13:35:05.261Z,14.98
2023-10-26T13:37:32.376Z,14.91
2023-10-26T13:40:03.614Z,14.86
2023-10-26T13:42:35.425Z,14.81
2023-10-26T13:45:03.560Z,14.78
2023-10-26T13:47:30.779Z,14.75
2023-10-26T13:49:57.857Z,14.70
2023-10-26T13:52:25.928Z,14.65
2023-10-26T13:54:52.994Z,14.57
2023-10-26T13:57:20.022Z,14.51
2023-10-26T13:59:47.373Z,14.46
2023-10-26T14:02:14.422Z,14.44
2023-10-26T14:04:41.540Z,14.41
2023-10-26T14:07:09.953Z,14.35
2023-10-26T14:09:37.039Z,14.28
2023-10-26T14:12:04.345Z,14.21
2023-10-26T14:14:33.348Z,14.15
2023-10-26T14:17:00.227Z,14.08
2023-10-26T14:19:27.817Z,14.01
2023-10-26T14:21:55.031Z,13.94
2023-10-26T14:24:22.143Z,13.88
2023-10-26T14:26:49.495Z,13.82
2023-10-26T14:29:16.750Z,13.75
2023-10-26T14:31:43.751Z,13.69
2023-10-26T14:34:10.988Z,13.63
2023-10-26T14:36:38.149Z,13.58
2023-10-26T14:39:05.242Z,13.53
2023-10-26T14:41:32.199Z,13.47
2023-10-26T14:43:59.652Z,13.41
2023-10-26T14:46:27.912Z,13.36
2023-10-26T14:48:57.213Z,13.33
2023-10-26T14:51:24.267Z,13.28
2023-10-26T14:53:51.219Z,13.24
2023-10-26T14:56:18.163Z,13.19
2023-10-26T14:58:45.148Z,13.18
2023-10-26T15:01:12.627Z,13.14
2023-10-26T15:03:39.822Z,13.08
2023-10-26T15:06:07.275Z,13.04
2023-10-26T15:08:34.906Z,12.99
2023-10-26T15:11:23.025Z,12.96
2023-10-26T15:13:50.736Z,12.91
2023-10-26T15:16:17.680Z,12.87
2023-10-26T15:18:45.759Z,12.81
2023-10-26T15:21:12.711Z,12.76
2023-10-26T15:23:39.535Z,12.69
2023-10-26T15:26:06.716Z,12.62
2023-10-26T15:28:33.681Z,12.57
2023-10-26T15:31:04.148Z,12.53
2023-10-26T15:33:31.643Z,12.50
2023-10-26T15:36:00.930Z,12.48
2023-10-26T15:38:30.653Z,12.46
2023-10-26T15:41:04.470Z,12.43
2023-10-26T15:43:32.046Z,12.39
2023-10-26T15:46:05.592Z,12.34
2023-10-26T15:49:32.658Z,12.30
2023-10-26T15:51:20.283Z,12.25
2023-10-26T15:53:47.278Z,12.20
2023-10-26T15:56:14.273Z,12.16
2023-10-26T15:58:41.321Z,12.13
2023-10-26T16:01:08.526Z,12.10
2023-10-26T16:03:35.580Z,12.07
2023-10-26T16:06:07.008Z,12.03
2023-10-26T16:08:34.634Z,12.00
2023-10-26T16:11:01.825Z,11.97
2023-10-26T16:13:29.956Z,11.95
2023-10-26T16:15:57.045Z,11.93
2023-10-26T16:18:24.264Z,11.91
2023-10-26T16:20:51.916Z,11.89
2023-10-26T16:23:19.091Z,11.88
2023-10-26T16:25:46.323Z,11.85
2023-10-26T16:28:13.371Z,11.84
2023-10-26T16:30:43.198Z,11.81
2023-10-26T16:33:10.854Z,11.80
2023-10-26T16:35:38.495Z,11.79
2023-10-26T16:38:05.326Z,11.76
2023-10-26T16:40:32.483Z,11.74
2023-10-26T16:42:59.427Z,11.73
2023-10-26T16:45:26.487Z,11.71
2023-10-26T16:47:56.302Z,11.70
2023-10-26T16:50:24.027Z,11.69
2023-10-26T16:52:50.971Z,11.68
2023-10-26T16:55:18.324Z,11.67
2023-10-26T16:57:45.293Z,11.65
2023-10-26T17:00:13.157Z,11.63
2023-10-26T17:02:41.042Z,11.61
2023-10-26T17:05:09.172Z,11.59
2023-10-26T17:07:40.009Z,11.58
2023-10-26T17:10:08.280Z,11.57
2023-10-26T17:12:35.574Z,11.55
2023-10-26T17:15:02.494Z,11.53
2023-10-26T17:17:29.471Z,11.52
2023-10-26T17:19:56.906Z,11.51
2023-10-26T17:22:23.924Z,11.49
2023-10-26T17:24:50.809Z,11.47
2023-10-26T17:27:17.712Z,11.47
2023-10-26T17:29:48.142Z,11.46
2023-10-26T17:32:14.876Z,11.46
2023-10-26T17:34:41.825Z,11.45
2023-10-26T17:37:08.689Z,11.44
2023-10-26T17:39:35.617Z,11.43
2023-10-26T17:42:02.470Z,11.42
2023-10-26T17:44:29.613Z,11.40
2023-10-26T17:46:56.598Z,11.40
2023-10-26T17:49:23.698Z,11.38
2023-10-26T17:51:50.735Z,11.36
2023-10-26T17:54:17.897Z,11.36
2023-10-26T17:56:44.848Z,11.35
2023-10-26T17:59:11.688Z,11.34
2023-10-26T18:01:39.162Z,11.33
2023-10-26T18:04:06.340Z,11.32
2023-10-26T18:06:34.173Z,11.31
2023-10-26T18:09:01.130Z,11.30
2023-10-26T18:11:27.955Z,11.30
2023-10-26T18:13:54.820Z,11.28
2023-10-26T18:16:21.708Z,11.27
2023-10-26T18:18:48.628Z,11.26
2023-10-26T18:21:15.837Z,11.24
2023-10-26T18:23:42.720Z,11.22
2023-10-26T18:26:10.757Z,11.21
2023-10-26T18:28:39.636Z,11.20
2023-10-26T18:31:13.931Z,11.19
2023-10-26T18:33:42.031Z,11.17
2023-10-26T18:36:13.667Z,11.15
2023-10-26T18:38:41.465Z,11.13
2023-10-26T18:41:09.091Z,11.11
2023-10-26T18:43:36.272Z,11.10
2023-10-26T18:46:06.617Z,11.07
2023-10-26T18:48:35.345Z,11.05
2023-10-26T18:51:03.221Z,11.03
2023-10-26T18:53:30.270Z,11.01
2023-10-26T18:55:57.328Z,10.99
2023-10-26T18:58:24.764Z,10.97
2023-10-26T19:00:52.273Z,10.95
2023-10-26T19:03:21.003Z,10.94
2023-10-26T19:05:48.468Z,10.92
2023-10-26T19:08:15.515Z,10.91
2023-10-26T19:10:42.421Z,10.90
2023-10-26T19:13:09.930Z,10.89
2023-10-26T19:15:37.172Z,10.88
2023-10-26T19:18:04.044Z,10.86
2023-10-26T19:20:31.473Z,10.85
2023-10-26T19:22:58.451Z,10.84
2023-10-26T19:25:26.901Z,10.83
2023-10-26T19:27:54.345Z,10.82
2023-10-26T19:30:30.234Z,10.80
2023-10-26T19:32:57.642Z,10.79
2023-10-26T19:35:25.463Z,10.77
2023-10-26T19:37:54.676Z,10.74
2023-10-26T19:40:21.866Z,10.73
2023-10-26T19:42:48.736Z,10.70
2023-10-26T19:45:15.766Z,10.68
2023-10-26T19:47:43.911Z,10.67
2023-10-26T19:50:11.710Z,10.66
2023-10-26T19:52:38.876Z,10.67
2023-10-26T19:55:07.605Z,10.68
2023-10-26T19:57:35.442Z,10.70
2023-10-26T20:00:05.578Z,10.72
2023-10-26T20:02:40.028Z,10.72
2023-10-26T20:05:07.530Z,10.73
2023-10-26T20:07:34.653Z,10.73
2023-10-26T20:10:01.742Z,10.73
2023-10-26T20:12:28.857Z,10.72
2023-10-26T20:14:55.776Z,10.71
2023-10-26T20:17:22.732Z,10.71
2023-10-26T20:19:49.560Z,10.70
2023-10-26T20:22:16.353Z,10.68
2023-10-26T20:24:48.380Z,10.66
2023-10-26T20:27:16.439Z,10.64
2023-10-26T20:29:43.641Z,10.61
2023-10-26T20:32:11.561Z,10.59
2023-10-26T20:34:39.040Z,10.56
2023-10-26T20:37:06.322Z,10.52
2023-10-26T20:39:33.853Z,10.48
2023-10-26T20:42:00.675Z,10.46
2023-10-26T20:44:27.546Z,10.44
2023-10-26T20:46:54.394Z,10.43
2023-10-26T20:49:21.924Z,10.42
2023-10-26T20:51:48.835Z,10.42
2023-10-26T20:54:15.799Z,10.41
2023-10-26T20:56:44.186Z,10.41
2023-10-26T20:59:11.633Z,10.41
2023-10-26T21:01:38.874Z,10.41
2023-10-26T21:04:06.108Z,10.43
2023-10-26T21:06:32.913Z,10.45
2023-10-26T21:09:01.159Z,10.47
2023-10-26T21:11:28.663Z,10.48
2023-10-26T21:13:55.581Z,10.50
2023-10-26T21:16:22.662Z,10.52
2023-10-26T21:18:50.214Z,10.54
2023-10-26T21:21:17.124Z,10.56
2023-10-26T21:23:43.894Z,10.56
2023-10-26T21:26:11.428Z,10.58
2023-10-26T21:28:39.622Z,10.59
2023-10-26T21:31:06.655Z,10.59
2023-10-26T21:33:33.832Z,10.61
2023-10-26T21:36:01.069Z,10.61
2023-10-26T21:38:27.896Z,10.62
2023-10-26T21:40:54.842Z,10.63
2023-10-26T21:43:22.084Z,10.65
2023-10-26T21:45:48.938Z,10.66
2023-10-26T21:48:15.871Z,10.68
2023-10-26T21:50:42.929Z,10.71
2023-10-26T21:53:10.068Z,10.74
2023-10-26T21:55:40.116Z,10.78
2023-10-26T21:58:07.474Z,10.81
2023-10-26T22:00:34.645Z,10.85
2023-10-26T22:03:01.555Z,10.88
2023-10-26T22:05:28.679Z,10.91
2023-10-26T22:07:55.452Z,10.93
2023-10-26T22:10:22.320Z,10.96
2023-10-26T22:12:49.348Z,10.97
2023-10-26T22:15:16.153Z,10.98
2023-10-26T22:17:43.227Z,10.98
2023-10-26T22:20:10.652Z,10.98
2023-10-26T22:22:38.026Z,10.99
2023-10-26T22:25:05.638Z,11.00
2023-10-26T22:27:33.056Z,11.01
2023-10-26T22:29:59.969Z,11.02
2023-10-26T22:32:26.761Z,11.04
2023-10-26T22:34:53.659Z,11.05
2023-10-26T22:37:20.620Z,11.06
2023-10-26T22:39:47.980Z,11.07
2023-10-26T22:42:15.500Z,11.09
2023-10-26T22:44:42.588Z,11.12
2023-10-26T22:47:09.565Z,11.14
2023-10-26T22:49:36.929Z,11.15
2023-10-26T22:52:05.656Z,11.16
2023-10-26T22:54:32.275Z,11.18
2023-10-26T22:56:59.122Z,11.19
2023-10-26T22:59:26.673Z,11.20
2023-10-26T23:01:53.520Z,11.21
2023-10-26T23:04:20.460Z,11.22
2023-10-26T23:06:47.902Z,11.22
2023-10-26T23:09:15.382Z,11.23
2023-10-26T23:11:42.756Z,11.23
2023-10-26T23:14:10.011Z,11.23
2023-10-26T23:16:37.607Z,11.24
2023-10-26T23:19:04.908Z,11.24
2023-10-26T23:21:32.672Z,11.24
2023-10-26T23:24:05.048Z,11.25
2023-10-26T23:26:35.118Z,11.25
2023-10-26T23:29:03.471Z,11.25
2023-10-26T23:31:30.476Z,11.26
2023-10-26T23:33:57.682Z,11.27
2023-10-26T23:36:24.779Z,11.27
2023-10-26T23:38:52.543Z,11.27
2023-10-26T23:41:19.312Z,11.27
2023-10-26T23:43:46.122Z,11.28
2023-10-26T23:46:13.017Z,11.29
2023-10-26T23:48:39.727Z,11.31
2023-10-26T23:51:06.676Z,11.32
2023-10-26T23:53:35.333Z,11.33
2023-10-26T23:56:02.735Z,11.34
2023-10-26T23:58:29.526Z,11.35
